createdAt,value
2022-10-19T00:00:13.630Z,0.00
2022-10-19T00:01:13.726Z,0.00
2022-10-19T00:02:13.661Z,0.00
2022-10-19T00:03:13.588Z,0.00
2022-10-19T00:04:13.577Z,0.00
2022-10-19T00:05:13.634Z,0.00
2022-10-19T00:06:13.551Z,0.00
2022-10-19T00:07:13.558Z,0.00
2022-10-19T00:08:13.564Z,0.00
2022-10-19T00:09:13.549Z,0.00
2022-10-19T00:10:13.569Z,0.00
2022-10-19T00:11:13.517Z,0.00
2022-10-19T00:12:13.494Z,0.00
2022-10-19T00:13:13.479Z,0.00
2022-10-19T00:14:13.473Z,0.00
2022-10-19T00:15:13.486Z,0.00
2022-10-19T00:16:13.434Z,0.00
2022-10-19T00:17:13.427Z,0.00
2022-10-19T00:18:13.433Z,0.00
2022-10-19T00:19:13.424Z,0.00
2022-10-19T00:20:13.449Z,0.00
2022-10-19T00:21:13.405Z,0.00
2022-10-19T00:22:14.137Z,0.00
2022-10-19T00:23:13.389Z,0.00
2022-10-19T00:24:13.364Z,0.00
2022-10-19T00:25:13.388Z,0.00
2022-10-19T00:26:13.334Z,0.00
2022-10-19T00:27:13.340Z,0.00
2022-10-19T00:28:13.313Z,0.00
2022-10-19T00:29:13.348Z,0.00
2022-10-19T00:30:13.343Z,0.00
2022-10-19T00:31:13.272Z,0.00
2022-10-19T00:32:13.282Z,0.00
2022-10-19T00:33:13.258Z,0.00
2022-10-19T00:34:13.249Z,0.00
2022-10-19T00:35:13.298Z,0.00
2022-10-19T00:36:13.226Z,0.00
2022-10-19T00:37:13.216Z,0.00
2022-10-19T00:38:13.192Z,0.00
2022-10-19T00:39:13.199Z,0.00
2022-10-19T00:40:13.231Z,0.00
2022-10-19T00:41:13.177Z,0.00
2022-10-19T00:42:13.153Z,0.00
2022-10-19T00:43:13.160Z,0.00
2022-10-19T00:44:13.138Z,0.00
2022-10-19T00:45:13.153Z,0.00
2022-10-19T00:46:13.094Z,0.00
2022-10-19T00:47:13.087Z,0.00
2022-10-19T00:48:13.099Z,0.00
2022-10-19T00:49:13.088Z,0.00
2022-10-19T00:50:13.110Z,0.00
2022-10-19T00:51:13.059Z,0.00
2022-10-19T00:52:13.039Z,0.00
2022-10-19T00:53:13.062Z,0.00
2022-10-19T00:54:13.028Z,0.00
2022-10-19T00:55:13.050Z,0.00
2022-10-19T00:56:12.997Z,0.00
2022-10-19T00:57:13.000Z,0.00
2022-10-19T00:58:12.959Z,0.00
2022-10-19T00:59:13.013Z,0.00
2022-10-19T01:00:12.939Z,0.00
2022-10-19T01:01:13.007Z,0.00
2022-10-19T01:02:12.930Z,0.00
2022-10-19T01:03:12.927Z,0.00
2022-10-19T01:04:12.914Z,0.00
2022-10-19T01:05:12.953Z,0.00
2022-10-19T01:06:12.872Z,0.00
2022-10-19T01:07:12.863Z,0.00
2022-10-19T01:08:12.852Z,0.00
2022-10-19T01:09:12.858Z,0.00
2022-10-19T01:10:12.887Z,0.00
2022-10-19T01:11:12.836Z,0.00
2022-10-19T01:12:12.808Z,0.00
2022-10-19T01:13:12.803Z,0.00
2022-10-19T01:14:12.773Z,0.00
2022-10-19T01:15:12.825Z,0.00
2022-10-19T01:16:12.752Z,0.00
2022-10-19T01:17:12.749Z,0.00
2022-10-19T01:18:12.748Z,0.00
2022-10-19T01:19:12.749Z,0.00
2022-10-19T01:20:12.763Z,0.00
2022-10-19T01:21:12.722Z,0.00
2022-10-19T01:22:12.692Z,0.00
2022-10-19T01:23:12.722Z,0.00
2022-10-19T01:24:12.670Z,0.00
2022-10-19T01:25:12.712Z,0.00
2022-10-19T01:26:12.662Z,0.00
2022-10-19T01:27:12.668Z,0.00
2022-10-19T01:28:12.624Z,0.00
2022-10-19T01:29:12.712Z,0.00
2022-10-19T01:30:12.658Z,0.00
2022-10-19T01:31:12.629Z,0.00
2022-10-19T01:32:12.605Z,0.00
2022-10-19T01:33:12.584Z,0.00
2022-10-19T01:34:12.604Z,0.00
2022-10-19T01:35:12.560Z,0.00
2022-10-19T01:36:12.533Z,0.00
2022-10-19T01:37:12.539Z,0.00
2022-10-19T01:38:12.512Z,0.00
2022-10-19T01:39:12.558Z,0.00
2022-10-19T01:40:12.495Z,0.00
2022-10-19T01:41:12.498Z,0.00
2022-10-19T01:42:12.475Z,0.00
2022-10-19T01:43:12.488Z,0.00
2022-10-19T01:44:12.518Z,0.00
2022-10-19T01:45:12.438Z,0.00
2022-10-19T01:46:12.420Z,0.00
2022-10-19T01:47:12.409Z,0.00
2022-10-19T01:48:12.392Z,0.00
2022-10-19T01:49:12.447Z,0.00
2022-10-19T01:50:12.393Z,0.00
2022-10-19T01:51:12.384Z,0.00
2022-10-19T01:52:12.354Z,0.00
2022-10-19T01:53:12.363Z,0.00
2022-10-19T01:54:12.385Z,0.00
2022-10-19T01:55:12.337Z,0.00
2022-10-19T01:56:12.316Z,0.00
2022-10-19T01:57:12.315Z,0.00
2022-10-19T01:58:12.276Z,0.00
2022-10-19T01:59:12.340Z,0.00
2022-10-19T02:00:12.270Z,0.00
2022-10-19T02:01:12.322Z,0.00
2022-10-19T02:02:12.258Z,0.00
2022-10-19T02:03:12.235Z,0.00
2022-10-19T02:04:12.267Z,0.00
2022-10-19T02:05:12.216Z,0.00
2022-10-19T02:06:12.193Z,0.00
2022-10-19T02:07:12.199Z,0.00
2022-10-19T02:08:12.185Z,0.00
2022-10-19T02:09:12.212Z,0.00
2022-10-19T02:10:12.156Z,0.00
2022-10-19T02:11:12.140Z,0.00
2022-10-19T02:12:12.141Z,0.00
2022-10-19T02:13:12.115Z,0.00
2022-10-19T02:14:12.148Z,0.00
2022-10-19T02:15:12.099Z,0.00
2022-10-19T02:16:12.101Z,0.00
2022-10-19T02:17:12.075Z,0.00
2022-10-19T02:18:12.044Z,0.00
2022-10-19T02:19:12.124Z,0.00
2022-10-19T02:20:12.044Z,0.00
2022-10-19T02:21:12.028Z,0.00
2022-10-19T02:22:12.030Z,0.00
2022-10-19T02:23:12.013Z,0.00
2022-10-19T02:24:12.032Z,0.00
2022-10-19T02:25:11.984Z,0.00
2022-10-19T02:26:11.964Z,0.00
2022-10-19T02:27:11.969Z,0.00
2022-10-19T02:28:11.941Z,0.00
2022-10-19T02:29:11.978Z,0.00
2022-10-19T02:30:11.901Z,0.00
2022-10-19T02:31:11.918Z,0.00
2022-10-19T02:32:11.901Z,0.00
2022-10-19T02:33:11.892Z,0.00
2022-10-19T02:34:11.917Z,0.00
2022-10-19T02:35:11.864Z,0.00
2022-10-19T02:36:11.861Z,0.00
2022-10-19T02:37:11.832Z,0.00
2022-10-19T02:38:11.832Z,0.00
2022-10-19T02:39:11.854Z,0.00
2022-10-19T02:40:11.802Z,0.00
2022-10-19T02:41:11.796Z,0.00
2022-10-19T02:42:11.782Z,0.00
2022-10-19T02:43:11.787Z,0.00
2022-10-19T02:44:11.802Z,0.00
2022-10-19T02:45:11.749Z,0.00
2022-10-19T02:46:11.721Z,0.00
2022-10-19T02:47:11.708Z,0.00
2022-10-19T02:48:11.706Z,0.00
2022-10-19T02:49:11.859Z,0.00
2022-10-19T02:50:11.693Z,0.00
2022-10-19T02:51:11.684Z,0.00
2022-10-19T02:52:11.678Z,0.00
2022-10-19T02:53:11.646Z,0.00
2022-10-19T02:54:11.680Z,0.00
2022-10-19T02:55:11.643Z,0.00
2022-10-19T02:56:11.632Z,0.00
2022-10-19T02:57:11.604Z,0.00
2022-10-19T02:58:11.614Z,0.00
2022-10-19T02:59:11.752Z,0.00
2022-10-19T03:00:11.573Z,0.00
2022-10-19T03:01:11.659Z,0.00
2022-10-19T03:02:11.552Z,0.00
2022-10-19T03:03:11.544Z,0.00
2022-10-19T03:04:11.580Z,0.00
2022-10-19T03:05:11.524Z,0.00
2022-10-19T03:06:11.513Z,0.00
2022-10-19T03:07:11.503Z,0.00
2022-10-19T03:08:11.491Z,0.00
2022-10-19T03:09:11.520Z,0.00
2022-10-19T03:10:11.471Z,0.00
2022-10-19T03:11:11.454Z,0.00
2022-10-19T03:12:11.446Z,0.00
2022-10-19T03:13:11.426Z,0.00
2022-10-19T03:14:11.602Z,0.00
2022-10-19T03:15:11.391Z,0.00
2022-10-19T03:16:11.382Z,0.00
2022-10-19T03:17:11.368Z,0.00
2022-10-19T03:18:11.366Z,0.00
2022-10-19T03:19:11.477Z,0.00
2022-10-19T03:20:11.342Z,0.00
2022-10-19T03:21:11.343Z,0.00
2022-10-19T03:22:11.326Z,0.00
2022-10-19T03:23:11.327Z,0.00
2022-10-19T03:24:11.441Z,0.00
2022-10-19T03:25:11.291Z,0.00
2022-10-19T03:26:12.348Z,0.00
2022-10-19T03:27:11.282Z,0.00
2022-10-19T03:28:11.271Z,0.00
2022-10-19T03:29:11.330Z,0.00
2022-10-19T03:30:11.269Z,0.00
2022-10-19T03:31:11.230Z,0.00
2022-10-19T03:32:11.224Z,0.00
2022-10-19T03:33:11.203Z,0.00
2022-10-19T03:34:11.240Z,0.00
2022-10-19T03:35:11.227Z,0.00
2022-10-19T03:36:11.169Z,0.00
2022-10-19T03:37:11.169Z,0.00
2022-10-19T03:38:11.149Z,0.00
2022-10-19T03:39:11.210Z,0.00
2022-10-19T03:40:11.186Z,0.00
2022-10-19T03:41:11.125Z,0.00
2022-10-19T03:42:11.108Z,0.00
2022-10-19T03:43:11.091Z,0.00
2022-10-19T03:44:11.246Z,0.00
2022-10-19T03:45:11.100Z,0.00
2022-10-19T03:46:11.075Z,0.00
2022-10-19T03:47:11.044Z,0.00
2022-10-19T03:48:11.030Z,0.00
2022-10-19T03:49:11.149Z,0.00
2022-10-19T03:50:11.092Z,0.00
2022-10-19T03:51:11.009Z,0.00
2022-10-19T03:52:10.991Z,0.00
2022-10-19T03:53:10.987Z,0.00
2022-10-19T03:54:10.970Z,0.00
2022-10-19T03:55:11.004Z,0.00
2022-10-19T03:56:10.942Z,0.00
2022-10-19T03:57:10.941Z,0.00
2022-10-19T03:58:10.937Z,0.00
2022-10-19T03:59:10.921Z,0.00
2022-10-19T04:00:10.946Z,0.00
2022-10-19T04:01:10.912Z,0.00
2022-10-19T04:02:10.889Z,0.00
2022-10-19T04:03:10.867Z,0.00
2022-10-19T04:04:10.955Z,0.00
2022-10-19T04:05:10.899Z,0.00
2022-10-19T04:06:10.850Z,0.00
2022-10-19T04:07:10.825Z,0.00
2022-10-19T04:08:10.808Z,0.00
2022-10-19T04:09:10.851Z,0.00
2022-10-19T04:10:10.787Z,0.00
2022-10-19T04:11:10.786Z,0.00
2022-10-19T04:12:10.774Z,0.00
2022-10-19T04:13:10.848Z,0.00
2022-10-19T04:14:10.766Z,0.00
2022-10-19T04:15:10.759Z,0.00
2022-10-19T04:16:10.713Z,0.00
2022-10-19T04:17:10.697Z,0.00
2022-10-19T04:18:10.694Z,0.00
2022-10-19T04:19:10.685Z,0.00
2022-10-19T04:20:10.730Z,0.00
2022-10-19T04:21:10.668Z,0.00
2022-10-19T04:22:10.675Z,0.00
2022-10-19T04:23:10.690Z,0.00
2022-10-19T04:24:10.630Z,0.00
2022-10-19T04:25:10.657Z,0.00
2022-10-19T04:26:10.618Z,0.00
2022-10-19T04:27:10.612Z,0.00
2022-10-19T04:28:10.577Z,0.00
2022-10-19T04:29:10.710Z,0.00
2022-10-19T04:30:10.601Z,0.00
2022-10-19T04:31:10.586Z,0.00
2022-10-19T04:32:10.530Z,0.00
2022-10-19T04:33:10.529Z,0.00
2022-10-19T04:34:10.655Z,0.00
2022-10-19T04:35:10.550Z,0.00
2022-10-19T04:36:10.501Z,0.00
2022-10-19T04:37:10.486Z,0.00
2022-10-19T04:38:10.477Z,0.00
2022-10-19T04:39:10.485Z,0.00
2022-10-19T04:40:14.873Z,0.00
2022-10-19T04:41:10.432Z,0.00
2022-10-19T04:42:10.446Z,0.00
2022-10-19T04:43:10.405Z,0.00
2022-10-19T04:44:10.647Z,0.00
2022-10-19T04:45:10.427Z,0.00
2022-10-19T04:46:10.369Z,0.00
2022-10-19T04:47:10.345Z,0.00
2022-10-19T04:48:10.363Z,0.00
2022-10-19T04:49:10.396Z,0.00
2022-10-19T04:50:10.399Z,0.00
2022-10-19T04:51:10.326Z,0.00
2022-10-19T04:52:10.313Z,0.00
2022-10-19T04:53:10.369Z,0.00
2022-10-19T04:54:10.311Z,0.00
2022-10-19T04:55:10.328Z,0.00
2022-10-19T04:56:10.305Z,0.00
2022-10-19T04:57:10.252Z,0.00
2022-10-19T04:58:10.261Z,0.00
2022-10-19T04:59:10.233Z,0.00
2022-10-19T05:00:10.268Z,0.00
2022-10-19T05:01:10.230Z,0.00
2022-10-19T05:02:10.190Z,0.00
2022-10-19T05:03:10.191Z,0.00
2022-10-19T05:04:10.199Z,0.00
2022-10-19T05:05:10.230Z,0.00
2022-10-19T05:06:10.145Z,0.00
2022-10-19T05:07:10.123Z,0.00
2022-10-19T05:08:10.137Z,0.00
2022-10-19T05:09:10.108Z,0.00
2022-10-19T05:10:10.143Z,0.00
2022-10-19T05:11:10.089Z,0.00
2022-10-19T05:12:10.073Z,0.00
2022-10-19T05:13:10.073Z,0.00
2022-10-19T05:14:10.061Z,0.00
2022-10-19T05:15:10.063Z,0.00
2022-10-19T05:16:10.023Z,0.00
2022-10-19T05:17:10.037Z,0.00
2022-10-19T05:18:09.998Z,0.00
2022-10-19T05:19:09.990Z,0.00
2022-10-19T05:20:10.029Z,0.00
2022-10-19T05:21:09.968Z,0.00
2022-10-19T05:22:09.964Z,0.00
2022-10-19T05:23:10.081Z,0.00
2022-10-19T05:24:09.951Z,0.00
2022-10-19T05:25:09.967Z,0.00
2022-10-19T05:26:09.916Z,5.62
2022-10-19T05:27:09.904Z,5.62
2022-10-19T05:28:09.891Z,5.62
2022-10-19T05:29:09.964Z,5.62
2022-10-19T05:30:09.930Z,5.62
2022-10-19T05:31:09.883Z,5.62
2022-10-19T05:32:09.857Z,5.62
2022-10-19T05:33:09.837Z,11.25
2022-10-19T05:34:09.857Z,11.25
2022-10-19T05:35:09.869Z,11.25
2022-10-19T05:36:09.819Z,16.88
2022-10-19T05:37:09.812Z,16.88
2022-10-19T05:38:09.775Z,16.88
2022-10-19T05:39:09.775Z,22.50
2022-10-19T05:40:09.801Z,22.50
2022-10-19T05:41:09.748Z,28.12
2022-10-19T05:42:09.740Z,28.12
2022-10-19T05:43:09.715Z,33.75
2022-10-19T05:44:09.776Z,33.75
2022-10-19T05:45:09.737Z,39.38
2022-10-19T05:46:09.685Z,39.38
2022-10-19T05:47:09.665Z,39.38
2022-10-19T05:48:09.680Z,39.38
2022-10-19T05:49:09.657Z,45.00
2022-10-19T05:50:09.688Z,45.00
2022-10-19T05:51:09.638Z,45.00
2022-10-19T05:52:09.634Z,50.62
2022-10-19T05:53:09.613Z,50.62
2022-10-19T05:54:09.682Z,56.25
2022-10-19T05:55:09.623Z,56.25
2022-10-19T05:56:09.567Z,61.88
2022-10-19T05:57:09.565Z,67.50
2022-10-19T05:58:09.567Z,67.50
2022-10-19T05:59:09.559Z,73.12
2022-10-19T06:00:09.594Z,73.12
2022-10-19T06:01:09.530Z,78.75
2022-10-19T06:02:09.586Z,78.75
2022-10-19T06:03:09.482Z,84.38
2022-10-19T06:04:09.531Z,90.00
2022-10-19T06:05:09.527Z,95.62
2022-10-19T06:06:09.470Z,95.62
2022-10-19T06:07:09.464Z,95.62
2022-10-19T06:08:09.446Z,95.62
2022-10-19T06:09:09.425Z,95.62
2022-10-19T06:10:09.468Z,95.62
2022-10-19T06:11:09.407Z,101.25
2022-10-19T06:12:09.388Z,101.25
2022-10-19T06:13:09.387Z,101.25
2022-10-19T06:14:09.361Z,106.88
2022-10-19T06:15:09.389Z,112.50
2022-10-19T06:16:09.338Z,123.75
2022-10-19T06:17:09.350Z,129.38
2022-10-19T06:18:09.335Z,135.00
2022-10-19T06:19:09.305Z,135.00
2022-10-19T06:20:09.349Z,140.62
2022-10-19T06:21:09.298Z,151.88
2022-10-19T06:22:09.291Z,151.88
2022-10-19T06:23:09.269Z,151.88
2022-10-19T06:24:09.287Z,151.88
2022-10-19T06:25:09.309Z,157.50
2022-10-19T06:26:09.260Z,174.38
2022-10-19T06:27:09.248Z,185.62
2022-10-19T06:28:09.224Z,185.62
2022-10-19T06:29:09.203Z,191.25
2022-10-19T06:30:09.244Z,196.88
2022-10-19T06:31:09.582Z,202.50
2022-10-19T06:32:09.163Z,213.75
2022-10-19T06:33:09.189Z,230.62
2022-10-19T06:34:09.225Z,253.12
2022-10-19T06:35:09.175Z,258.75
2022-10-19T06:36:09.164Z,258.75
2022-10-19T06:37:09.102Z,247.50
2022-10-19T06:38:09.102Z,236.25
2022-10-19T06:39:09.091Z,225.00
2022-10-19T06:40:09.150Z,225.00
2022-10-19T06:41:09.072Z,230.62
2022-10-19T06:42:09.043Z,236.25
2022-10-19T06:43:09.057Z,241.88
2022-10-19T06:44:09.020Z,236.25
2022-10-19T06:45:09.041Z,241.88
2022-10-19T06:46:09.013Z,236.25
2022-10-19T06:47:09.052Z,230.62
2022-10-19T06:48:08.997Z,225.00
2022-10-19T06:49:08.964Z,225.00
2022-10-19T06:50:09.031Z,225.00
2022-10-19T06:51:08.947Z,230.62
2022-10-19T06:52:08.962Z,247.50
2022-10-19T06:53:08.920Z,264.38
2022-10-19T06:54:08.943Z,275.62
2022-10-19T06:55:08.996Z,275.62
2022-10-19T06:56:08.905Z,281.25
2022-10-19T06:57:08.923Z,275.62
2022-10-19T06:58:08.871Z,258.75
2022-10-19T06:59:08.872Z,247.50
2022-10-19T07:00:08.893Z,247.50
2022-10-19T07:01:08.939Z,253.12
2022-10-19T07:02:08.825Z,264.38
2022-10-19T07:03:08.829Z,264.38
2022-10-19T07:04:08.820Z,270.00
2022-10-19T07:05:08.830Z,275.62
2022-10-19T07:06:08.787Z,275.62
2022-10-19T07:07:08.780Z,270.00
2022-10-19T07:08:08.818Z,258.75
2022-10-19T07:09:08.749Z,253.12
2022-10-19T07:10:08.855Z,253.12
2022-10-19T07:11:08.743Z,264.38
2022-10-19T07:12:08.708Z,264.38
2022-10-19T07:14:08.686Z,264.38
2022-10-19T07:15:08.710Z,258.75
2022-10-19T07:16:08.669Z,253.12
2022-10-19T07:17:08.687Z,253.12
2022-10-19T07:18:08.661Z,258.75
2022-10-19T07:19:08.648Z,270.00
2022-10-19T07:20:08.669Z,286.88
2022-10-19T07:21:08.619Z,303.75
2022-10-19T07:22:08.607Z,320.62
2022-10-19T07:23:08.599Z,337.50
2022-10-19T07:24:08.593Z,337.50
2022-10-19T07:25:08.640Z,343.12
2022-10-19T07:26:08.567Z,348.75
2022-10-19T07:27:08.567Z,360.00
2022-10-19T07:28:08.531Z,376.88
2022-10-19T07:29:08.535Z,393.75
2022-10-19T07:30:08.523Z,388.12
2022-10-19T07:31:08.547Z,382.50
2022-10-19T07:32:08.533Z,365.62
2022-10-19T07:33:08.536Z,343.12
2022-10-19T07:34:08.456Z,343.12
2022-10-19T07:35:08.447Z,354.38
2022-10-19T07:36:08.498Z,371.25
2022-10-19T07:37:08.437Z,388.12
2022-10-19T07:38:08.431Z,410.62
2022-10-19T07:39:08.458Z,427.50
2022-10-19T07:40:08.408Z,433.12
2022-10-19T07:41:08.446Z,421.88
2022-10-19T07:42:08.465Z,410.62
2022-10-19T07:43:08.351Z,393.75
2022-10-19T07:44:09.966Z,382.50
2022-10-19T07:45:08.344Z,382.50
2022-10-19T07:46:08.377Z,382.50
2022-10-19T07:47:08.327Z,382.50
2022-10-19T07:48:08.318Z,388.12
2022-10-19T07:49:08.323Z,393.75
2022-10-19T07:50:08.287Z,405.00
2022-10-19T07:51:08.325Z,433.12
2022-10-19T07:52:08.270Z,466.88
2022-10-19T07:53:08.261Z,495.00
2022-10-19T07:54:08.261Z,500.62
2022-10-19T07:55:08.241Z,500.62
2022-10-19T07:56:08.286Z,495.00
2022-10-19T07:57:08.217Z,489.38
2022-10-19T07:58:08.198Z,500.62
2022-10-19T07:59:08.186Z,506.25
2022-10-19T08:00:08.192Z,500.62
2022-10-19T08:01:08.214Z,511.88
2022-10-19T08:02:08.231Z,551.25
2022-10-19T08:05:11.509Z,630.00
2022-10-19T08:06:08.146Z,635.62
2022-10-19T08:07:08.098Z,646.88
2022-10-19T08:08:08.103Z,652.50
2022-10-19T08:09:08.125Z,658.12
2022-10-19T08:10:08.065Z,658.12
2022-10-19T08:11:08.072Z,669.38
2022-10-19T08:12:12.340Z,675.00
2022-10-19T08:13:09.026Z,669.38
2022-10-19T08:14:07.995Z,686.25
2022-10-19T08:15:08.019Z,691.88
2022-10-19T08:16:08.069Z,697.50
2022-10-19T08:17:08.001Z,736.88
2022-10-19T08:18:08.008Z,793.12
2022-10-19T08:19:07.959Z,821.25
2022-10-19T08:20:07.950Z,815.62
2022-10-19T08:21:07.987Z,798.75
2022-10-19T08:22:07.928Z,894.38
2022-10-19T08:23:07.914Z,905.62
2022-10-19T08:24:07.905Z,922.50
2022-10-19T08:25:07.887Z,1012.50
2022-10-19T08:26:07.912Z,1186.88
2022-10-19T08:27:07.922Z,1018.12
2022-10-19T08:28:07.852Z,1125.00
2022-10-19T08:29:07.853Z,945.00
2022-10-19T08:30:07.830Z,793.12
2022-10-19T08:31:07.873Z,725.62
2022-10-19T08:32:07.801Z,686.25
2022-10-19T08:33:07.782Z,753.75
2022-10-19T08:34:07.808Z,1186.88
2022-10-19T08:35:10.693Z,1170.00
2022-10-19T08:36:07.797Z,2908.12
2022-10-19T08:37:19.729Z,3330.00
2022-10-19T08:38:08.765Z,1293.75
2022-10-19T08:39:07.718Z,1220.62
2022-10-19T08:40:07.720Z,1473.75
2022-10-19T08:41:07.738Z,1096.88
2022-10-19T08:42:07.679Z,1012.50
2022-10-19T08:43:07.679Z,961.88
2022-10-19T08:44:10.044Z,922.50
2022-10-19T08:45:07.669Z,905.62
2022-10-19T08:46:07.704Z,888.75
2022-10-19T08:47:07.768Z,849.38
2022-10-19T08:48:07.638Z,860.62
2022-10-19T08:49:07.638Z,838.12
2022-10-19T08:50:07.604Z,815.62
2022-10-19T08:52:17.010Z,793.12
2022-10-19T08:53:16.975Z,776.25
2022-10-19T08:54:16.986Z,725.62
2022-10-19T08:55:19.771Z,708.75
2022-10-19T08:56:26.825Z,770.62
2022-10-19T08:57:17.947Z,821.25
2022-10-19T08:58:16.927Z,815.62
2022-10-19T08:59:16.929Z,776.25
2022-10-19T09:00:16.956Z,804.38
2022-10-19T09:01:16.903Z,804.38
2022-10-19T09:02:16.898Z,759.38
2022-10-19T09:03:23.047Z,736.88
2022-10-19T09:04:17.992Z,781.88
2022-10-19T09:05:16.887Z,877.50
2022-10-19T09:06:16.841Z,916.88
2022-10-19T09:07:16.822Z,995.62
2022-10-19T09:08:17.855Z,1136.25
2022-10-19T09:09:16.806Z,798.75
2022-10-19T09:10:16.838Z,911.25
2022-10-19T09:11:16.774Z,1811.25
2022-10-19T09:12:16.762Z,2064.38
2022-10-19T09:13:16.754Z,1766.25
2022-10-19T09:14:16.749Z,1068.75
2022-10-19T09:15:16.779Z,703.12
2022-10-19T09:16:16.878Z,776.25
2022-10-19T09:17:16.721Z,742.50
2022-10-19T09:18:16.706Z,793.12
2022-10-19T09:19:16.704Z,894.38
2022-10-19T09:20:16.729Z,1350.00
2022-10-19T09:21:16.645Z,1293.75
2022-10-19T09:22:16.675Z,1406.25
2022-10-19T09:23:16.639Z,2244.38
2022-10-19T09:24:16.661Z,1839.38
2022-10-19T09:25:16.658Z,1265.62
2022-10-19T09:26:16.608Z,2036.25
2022-10-19T09:27:16.596Z,2210.62
2022-10-19T09:28:16.605Z,2098.12
2022-10-19T09:29:16.587Z,1878.75
2022-10-19T09:30:16.631Z,2356.88
2022-10-19T09:31:16.559Z,2621.25
2022-10-19T09:32:16.537Z,2086.88
2022-10-19T09:33:16.540Z,1923.75
2022-10-19T09:34:16.521Z,2311.88
2022-10-19T09:35:16.499Z,2638.12
2022-10-19T09:36:22.574Z,2075.62
2022-10-19T09:37:24.771Z,815.62
2022-10-19T09:38:17.476Z,663.75
2022-10-19T09:39:16.455Z,596.25
2022-10-19T09:40:16.444Z,556.88
2022-10-19T09:41:16.469Z,472.50
2022-10-19T09:42:16.447Z,900.00
2022-10-19T09:43:16.419Z,1215.00
2022-10-19T09:44:16.403Z,1395.00
2022-10-19T09:45:16.409Z,1215.00
2022-10-19T09:46:20.142Z,1130.62
2022-10-19T09:47:16.357Z,1282.50
2022-10-19T09:48:16.371Z,995.62
2022-10-19T09:49:16.340Z,888.75
2022-10-19T09:50:16.342Z,1198.12
2022-10-19T09:51:16.387Z,1125.00
2022-10-19T09:52:16.319Z,1147.50
2022-10-19T09:53:16.293Z,1192.50
2022-10-19T09:54:16.293Z,697.50
2022-10-19T09:55:16.284Z,838.12
2022-10-19T09:56:16.335Z,883.12
2022-10-19T09:57:16.269Z,798.75
2022-10-19T09:58:16.245Z,725.62
2022-10-19T09:59:16.218Z,916.88
2022-10-19T10:00:16.234Z,843.75
2022-10-19T10:01:16.270Z,1035.00
2022-10-19T10:02:16.217Z,1383.75
2022-10-19T10:03:16.184Z,1614.38
2022-10-19T10:04:16.164Z,2182.50
2022-10-19T10:05:16.163Z,1366.88
2022-10-19T10:06:16.201Z,1816.88
2022-10-19T10:07:16.150Z,1507.50
2022-10-19T10:08:16.129Z,1271.25
2022-10-19T10:09:16.107Z,748.12
2022-10-19T10:10:16.099Z,517.50
2022-10-19T10:11:16.238Z,427.50
2022-10-19T10:12:16.088Z,309.38
2022-10-19T10:13:16.064Z,275.62
2022-10-19T10:14:16.066Z,286.88
2022-10-19T10:15:16.040Z,331.88
2022-10-19T10:16:16.097Z,399.38
2022-10-19T10:17:16.016Z,472.50
2022-10-19T10:18:16.002Z,528.75
2022-10-19T10:19:16.015Z,585.00
2022-10-19T10:20:16.036Z,618.75
2022-10-19T10:21:16.024Z,646.88
2022-10-19T10:22:15.956Z,686.25
2022-10-19T10:23:15.941Z,725.62
2022-10-19T10:24:15.948Z,759.38
2022-10-19T10:25:15.945Z,781.88
2022-10-19T10:26:15.958Z,776.25
2022-10-19T10:27:15.903Z,793.12
2022-10-19T10:28:15.884Z,855.00
2022-10-19T10:29:15.885Z,933.75
2022-10-19T10:30:15.920Z,1001.25
2022-10-19T10:31:15.894Z,1029.38
2022-10-19T10:32:15.841Z,1029.38
2022-10-19T10:33:27.113Z,1012.50
2022-10-19T10:34:30.259Z,967.50
2022-10-19T10:35:16.817Z,900.00
2022-10-19T10:36:15.847Z,798.75
2022-10-19T10:37:15.766Z,680.62
2022-10-19T10:38:15.757Z,573.75
2022-10-19T10:39:15.754Z,489.38
2022-10-19T10:40:17.855Z,421.88
2022-10-19T10:41:16.756Z,371.25
2022-10-19T10:42:15.728Z,337.50
2022-10-19T10:43:15.695Z,309.38
2022-10-19T10:44:15.705Z,320.62
2022-10-19T10:45:15.690Z,360.00
2022-10-19T10:46:15.733Z,421.88
2022-10-19T10:47:15.665Z,472.50
2022-10-19T10:48:15.630Z,500.62
2022-10-19T10:49:15.660Z,511.88
2022-10-19T10:50:15.659Z,511.88
2022-10-19T10:51:15.648Z,500.62
2022-10-19T10:52:15.599Z,495.00
2022-10-19T10:53:15.601Z,483.75
2022-10-19T10:54:15.614Z,478.12
2022-10-19T10:55:15.592Z,466.88
2022-10-19T10:56:15.595Z,461.25
2022-10-19T10:57:15.598Z,450.00
2022-10-19T10:58:15.551Z,461.25
2022-10-19T10:59:15.523Z,483.75
2022-10-19T11:00:15.584Z,506.25
2022-10-19T11:01:15.589Z,511.88
2022-10-19T11:02:15.566Z,540.00
2022-10-19T11:03:15.499Z,613.12
2022-10-19T11:04:15.464Z,691.88
2022-10-19T11:05:15.472Z,748.12
2022-10-19T11:06:15.529Z,798.75
2022-10-19T11:07:15.417Z,843.75
2022-10-19T11:08:15.394Z,888.75
2022-10-19T11:09:15.404Z,916.88
2022-10-19T11:10:15.460Z,922.50
2022-10-19T11:11:15.447Z,916.88
2022-10-19T11:12:15.391Z,916.88
2022-10-19T11:13:15.837Z,900.00
2022-10-19T11:14:15.350Z,888.75
2022-10-19T11:15:15.355Z,883.12
2022-10-19T11:16:15.393Z,883.12
2022-10-19T11:17:15.360Z,877.50
2022-10-19T11:18:15.305Z,871.88
2022-10-19T11:20:15.318Z,826.88
2022-10-19T11:21:15.336Z,826.88
2022-10-19T11:22:15.269Z,838.12
2022-10-19T11:23:15.255Z,855.00
2022-10-19T11:24:15.232Z,883.12
2022-10-19T11:25:15.239Z,905.62
2022-10-19T11:26:15.273Z,922.50
2022-10-19T11:27:15.249Z,933.75
2022-10-19T11:28:15.204Z,928.12
2022-10-19T11:29:15.177Z,916.88
2022-10-19T11:30:15.168Z,900.00
2022-10-19T11:31:15.211Z,877.50
2022-10-19T11:32:15.119Z,894.38
2022-10-19T11:33:15.164Z,950.62
2022-10-19T11:34:16.206Z,1012.50
2022-10-19T11:35:15.111Z,1018.12
2022-10-19T11:36:15.137Z,990.00
2022-10-19T11:37:15.088Z,956.25
2022-10-19T11:38:20.056Z,916.88
2022-10-19T11:39:16.043Z,849.38
2022-10-19T11:40:18.639Z,765.00
2022-10-19T11:41:18.682Z,675.00
2022-10-19T11:42:15.032Z,590.62
2022-10-19T11:43:15.085Z,528.75
2022-10-19T11:44:15.009Z,495.00
2022-10-19T11:45:14.990Z,483.75
2022-10-19T11:46:15.024Z,478.12
2022-10-19T11:47:14.985Z,472.50
2022-10-19T11:48:14.950Z,478.12
2022-10-19T11:49:14.949Z,489.38
2022-10-19T11:50:14.928Z,500.62
2022-10-19T11:51:21.681Z,506.25
2022-10-19T11:52:15.910Z,528.75
2022-10-19T11:53:14.890Z,585.00
2022-10-19T11:54:15.068Z,663.75
2022-10-19T11:55:14.884Z,765.00
2022-10-19T11:56:14.906Z,843.75
2022-10-19T11:57:14.860Z,871.88
2022-10-19T11:58:14.849Z,838.12
2022-10-19T11:59:14.886Z,697.50
2022-10-19T12:00:27.197Z,551.25
2022-10-19T12:01:15.852Z,551.25
2022-10-19T12:02:14.856Z,652.50
2022-10-19T12:03:14.790Z,753.75
2022-10-19T12:04:14.764Z,826.88
2022-10-19T12:05:14.735Z,838.12
2022-10-19T12:06:14.768Z,832.50
2022-10-19T12:07:14.728Z,765.00
2022-10-19T12:08:14.755Z,725.62
2022-10-19T12:09:14.776Z,787.50
2022-10-19T12:10:14.738Z,883.12
2022-10-19T12:11:14.691Z,641.25
2022-10-19T12:12:14.675Z,573.75
2022-10-19T12:13:14.662Z,540.00
2022-10-19T12:14:14.642Z,528.75
2022-10-19T12:15:14.690Z,607.50
2022-10-19T12:16:14.630Z,635.62
2022-10-19T12:17:14.653Z,613.12
2022-10-19T12:18:14.589Z,624.38
2022-10-19T12:19:14.593Z,635.62
2022-10-19T12:20:17.466Z,652.50
2022-10-19T12:21:15.572Z,675.00
2022-10-19T12:22:14.554Z,703.12
2022-10-19T12:23:14.561Z,720.00
2022-10-19T12:24:14.533Z,725.62
2022-10-19T12:25:14.605Z,736.88
2022-10-19T12:26:14.571Z,765.00
2022-10-19T12:27:14.482Z,781.88
2022-10-19T12:28:14.492Z,826.88
2022-10-19T12:29:14.468Z,883.12
2022-10-19T12:30:14.523Z,877.50
2022-10-19T12:31:14.467Z,894.38
2022-10-19T12:32:14.435Z,894.38
2022-10-19T12:33:14.411Z,900.00
2022-10-19T12:34:14.407Z,911.25
2022-10-19T12:35:14.483Z,905.62
2022-10-19T12:36:14.366Z,928.12
2022-10-19T12:37:14.376Z,961.88
2022-10-19T12:38:14.372Z,984.38
2022-10-19T12:39:14.489Z,1006.88
2022-10-19T12:40:14.390Z,1012.50
2022-10-19T12:41:14.343Z,1012.50
2022-10-19T12:42:14.309Z,1040.62
2022-10-19T12:43:14.304Z,1046.25
2022-10-19T12:44:14.393Z,1068.75
2022-10-19T12:45:14.322Z,1029.38
2022-10-19T12:46:14.277Z,1012.50
2022-10-19T12:47:14.280Z,1057.50
2022-10-19T12:48:14.296Z,1080.00
2022-10-19T12:49:14.258Z,1102.50
2022-10-19T12:50:14.314Z,1276.88
2022-10-19T12:51:14.212Z,1096.88
2022-10-19T12:52:14.193Z,1091.25
2022-10-19T12:53:14.217Z,1040.62